createdAt,value
2018-09-30T00:00:55.578Z,3.50
2018-09-30T00:03:24.146Z,3.10
2018-09-30T00:05:52.784Z,4.20
2018-09-30T00:08:21.601Z,3.73
2018-09-30T00:10:50.242Z,4.40
2018-09-30T00:13:18.941Z,3.90
2018-09-30T00:15:47.636Z,4.03
2018-09-30T00:18:16.356Z,4.40
2018-09-30T00:20:44.908Z,4.07
2018-09-30T00:23:13.435Z,3.70
2018-09-30T00:25:47.064Z,4.43
2018-09-30T00:28:15.730Z,4.20
2018-09-30T00:30:44.326Z,3.50
2018-09-30T00:33:12.876Z,3.17
2018-09-30T00:35:41.470Z,3.97
2018-09-30T00:38:10.066Z,3.30
2018-09-30T00:40:38.603Z,3.93
2018-09-30T00:43:07.234Z,3.70
2018-09-30T00:45:35.859Z,3.60
2018-09-30T00:48:04.505Z,4.13
2018-09-30T00:50:33.076Z,3.47
2018-09-30T00:53:01.730Z,3.83
2018-09-30T00:55:30.353Z,3.03
2018-09-30T00:57:58.932Z,3.80
2018-09-30T01:00:27.563Z,3.97
2018-09-30T01:02:56.133Z,3.70
2018-09-30T01:05:24.774Z,3.70
2018-09-30T01:07:53.442Z,4.07
2018-09-30T01:10:22.050Z,3.67
2018-09-30T01:12:50.741Z,3.40
2018-09-30T01:15:19.322Z,3.47
2018-09-30T01:17:47.889Z,4.03
2018-09-30T01:20:16.464Z,3.10
2018-09-30T01:22:44.977Z,3.40
2018-09-30T01:25:13.494Z,3.77
2018-09-30T01:27:42.007Z,3.10
2018-09-30T01:30:10.594Z,3.30
2018-09-30T01:32:39.143Z,3.13
2018-09-30T01:35:07.759Z,3.00
2018-09-30T01:37:36.341Z,3.17
2018-09-30T01:40:04.845Z,3.20
2018-09-30T01:42:33.369Z,2.83
2018-09-30T01:45:01.884Z,3.40
2018-09-30T01:47:30.448Z,3.07
2018-09-30T01:49:59.130Z,3.37
2018-09-30T01:52:38.823Z,3.50
2018-09-30T01:55:07.373Z,3.00
2018-09-30T01:57:35.884Z,3.00
2018-09-30T02:00:04.384Z,3.30
2018-09-30T02:02:32.935Z,3.37
2018-09-30T02:05:01.521Z,2.93
2018-09-30T02:07:30.004Z,2.93
2018-09-30T02:09:58.508Z,3.33
2018-09-30T02:12:27.075Z,3.07
2018-09-30T02:14:55.613Z,2.83
2018-09-30T02:17:24.182Z,3.00
2018-09-30T02:19:52.734Z,2.80
2018-09-30T02:22:21.228Z,3.27
2018-09-30T02:24:49.840Z,3.33
2018-09-30T02:27:18.392Z,3.57
2018-09-30T02:29:47.128Z,3.10
2018-09-30T02:32:15.697Z,3.70
2018-09-30T02:34:44.272Z,3.07
2018-09-30T02:37:12.851Z,3.27
2018-09-30T02:39:41.372Z,2.80
2018-09-30T02:42:10.493Z,3.07
2018-09-30T02:44:39.044Z,3.53
2018-09-30T02:47:07.603Z,3.00
2018-09-30T02:49:36.213Z,2.40
2018-09-30T02:52:04.749Z,3.13
2018-09-30T02:54:33.388Z,3.40
2018-09-30T02:57:01.948Z,2.80
2018-09-30T02:59:30.512Z,3.20
2018-09-30T03:01:59.017Z,3.10
2018-09-30T03:04:27.557Z,2.83
2018-09-30T03:07:01.252Z,2.70
2018-09-30T03:09:29.804Z,2.80
2018-09-30T03:11:58.401Z,2.57
2018-09-30T03:14:26.956Z,3.03
2018-09-30T03:16:55.554Z,2.90
2018-09-30T03:19:24.148Z,2.60
2018-09-30T03:21:52.783Z,2.60
2018-09-30T03:24:21.453Z,3.13
2018-09-30T03:26:49.994Z,3.40
2018-09-30T03:29:18.603Z,2.73
2018-09-30T03:31:47.156Z,2.90
2018-09-30T03:34:15.828Z,2.77
2018-09-30T03:36:44.453Z,2.87
2018-09-30T03:39:13.146Z,2.30
2018-09-30T03:41:41.746Z,2.77
2018-09-30T03:44:10.400Z,3.03
2018-09-30T03:46:39.168Z,2.67
2018-09-30T03:49:07.956Z,2.67
2018-09-30T03:51:36.643Z,2.80
2018-09-30T03:54:05.300Z,2.90
2018-09-30T03:56:33.906Z,2.57
2018-09-30T03:59:02.464Z,3.03
2018-09-30T04:01:31.046Z,2.63
2018-09-30T04:03:59.811Z,2.93
2018-09-30T04:06:28.661Z,2.80
2018-09-30T04:08:57.212Z,3.20
2018-09-30T04:11:25.908Z,2.90
2018-09-30T04:13:54.524Z,2.67
2018-09-30T04:16:23.087Z,2.70
2018-09-30T04:18:51.661Z,2.90
2018-09-30T04:21:20.312Z,3.30
2018-09-30T04:23:48.880Z,3.00
2018-09-30T04:26:17.466Z,2.80
2018-09-30T04:28:45.980Z,2.53
2018-09-30T04:31:14.601Z,2.50
2018-09-30T04:33:43.248Z,3.23
2018-09-30T04:36:11.836Z,3.30
2018-09-30T04:38:40.425Z,3.10
2018-09-30T04:41:09.063Z,2.57
2018-09-30T04:43:37.641Z,3.00
2018-09-30T04:46:06.342Z,3.27
2018-09-30T04:48:34.919Z,2.83
2018-09-30T04:51:03.448Z,2.83
2018-09-30T04:53:32.022Z,2.93
2018-09-30T04:56:00.579Z,2.73
2018-09-30T04:58:29.091Z,2.60
2018-09-30T05:00:58.024Z,2.63
2018-09-30T05:03:27.123Z,2.80
2018-09-30T05:05:56.187Z,2.40
2018-09-30T05:08:25.712Z,2.60
2018-09-30T05:10:54.817Z,2.50
2018-09-30T05:13:24.079Z,3.00
2018-09-30T05:15:53.036Z,2.40
2018-09-30T05:18:22.108Z,2.60
2018-09-30T05:20:50.890Z,2.50
2018-09-30T05:23:19.878Z,2.77
2018-09-30T05:25:48.728Z,2.73
2018-09-30T05:28:17.809Z,2.70
2018-09-30T05:30:46.668Z,2.90
2018-09-30T05:33:15.634Z,3.00
2018-09-30T05:35:44.617Z,2.77
2018-09-30T05:38:13.501Z,2.37
2018-09-30T05:40:42.493Z,2.50
2018-09-30T05:43:11.556Z,2.27
2018-09-30T05:45:40.377Z,2.40
2018-09-30T05:48:09.322Z,2.93
2018-09-30T05:50:38.334Z,2.33
2018-09-30T05:53:07.513Z,2.40
2018-09-30T05:55:36.399Z,2.70
2018-09-30T05:58:05.394Z,2.67
2018-09-30T06:00:34.294Z,2.33
2018-09-30T06:03:03.763Z,2.73
2018-09-30T06:05:32.818Z,2.53
2018-09-30T06:08:01.744Z,3.13
2018-09-30T06:10:30.813Z,2.57
2018-09-30T06:12:59.833Z,2.50
2018-09-30T06:15:28.971Z,2.70
2018-09-30T06:17:58.174Z,2.40
2018-09-30T06:20:27.056Z,2.53
2018-09-30T06:22:56.095Z,2.93
2018-09-30T06:25:25.106Z,2.97
2018-09-30T06:27:54.167Z,2.90
2018-09-30T06:30:22.994Z,2.53
2018-09-30T06:32:52.142Z,2.80
2018-09-30T06:35:21.200Z,3.47
2018-09-30T06:37:50.206Z,4.70
2018-09-30T06:40:19.305Z,3.37
2018-09-30T06:42:48.494Z,3.10
2018-09-30T06:45:17.682Z,3.00
2018-09-30T06:47:46.626Z,3.90
2018-09-30T06:50:15.878Z,3.87
2018-09-30T06:52:44.873Z,3.00
2018-09-30T06:55:13.869Z,3.33
2018-09-30T06:57:42.856Z,2.63
2018-09-30T07:00:11.936Z,3.00
2018-09-30T07:02:40.946Z,2.70
2018-09-30T07:05:10.106Z,3.00
2018-09-30T07:07:39.122Z,2.67
2018-09-30T07:10:08.099Z,2.60
2018-09-30T07:12:37.310Z,2.60
2018-09-30T07:15:06.120Z,3.00
2018-09-30T07:17:34.888Z,2.60
2018-09-30T07:20:03.833Z,2.70
2018-09-30T07:22:32.599Z,2.67
2018-09-30T07:25:01.824Z,2.97
2018-09-30T07:27:30.909Z,2.70
2018-09-30T07:30:00.312Z,3.27
2018-09-30T07:32:29.638Z,3.00
2018-09-30T07:34:58.906Z,3.03
2018-09-30T07:37:28.209Z,2.70
2018-09-30T07:39:57.776Z,3.30
2018-09-30T07:42:26.706Z,3.23
2018-09-30T07:44:55.692Z,3.63
2018-09-30T07:47:24.683Z,3.07
2018-09-30T07:49:53.862Z,3.43
2018-09-30T07:52:22.869Z,3.20
2018-09-30T07:54:52.120Z,3.23
2018-09-30T07:57:21.499Z,3.47
2018-09-30T07:59:50.168Z,3.33
2018-09-30T08:02:19.148Z,2.90
2018-09-30T08:04:48.111Z,3.37
2018-09-30T08:07:16.919Z,3.20
2018-09-30T08:09:45.699Z,3.37
2018-09-30T08:12:14.803Z,3.67
2018-09-30T08:14:43.517Z,3.00
2018-09-30T08:17:12.423Z,3.47
2018-09-30T08:19:41.337Z,3.37
2018-09-30T08:22:10.130Z,2.80
2018-09-30T08:24:38.975Z,2.90
2018-09-30T08:27:07.850Z,3.20
2018-09-30T08:29:36.625Z,3.40
2018-09-30T08:32:05.778Z,3.00
2018-09-30T08:34:34.672Z,2.85
2018-09-30T08:37:03.643Z,2.83
2018-09-30T08:39:32.556Z,2.47
2018-09-30T08:42:01.573Z,2.70
2018-09-30T08:44:30.206Z,2.08
2018-09-30T08:46:58.972Z,2.45
2018-09-30T08:49:28.032Z,2.15
2018-09-30T08:51:56.858Z,2.67
2018-09-30T08:54:25.852Z,2.22
2018-09-30T08:56:54.909Z,2.27
2018-09-30T08:59:23.937Z,2.47
2018-09-30T09:01:52.937Z,2.47
2018-09-30T09:04:21.961Z,2.12
2018-09-30T09:06:50.812Z,2.08
2018-09-30T09:09:19.506Z,1.87
2018-09-30T09:11:48.291Z,2.30
2018-09-30T09:14:17.840Z,3.65
2018-09-30T09:16:46.647Z,3.55
2018-09-30T09:19:15.427Z,2.60
2018-09-30T09:21:44.310Z,2.40
2018-09-30T09:24:12.943Z,2.47
2018-09-30T09:26:41.537Z,2.17
2018-09-30T09:31:49.990Z,2.80
2018-09-30T09:34:18.625Z,2.67
2018-09-30T09:36:55.445Z,2.67
2018-09-30T09:39:24.669Z,2.92
2018-09-30T09:41:53.501Z,2.62
2018-09-30T09:44:25.941Z,2.90
2018-09-30T09:46:55.119Z,3.27
2018-09-30T09:49:23.804Z,2.72
2018-09-30T09:51:52.608Z,3.10
2018-09-30T09:54:21.563Z,2.87
2018-09-30T09:56:51.176Z,2.90
2018-09-30T09:59:20.275Z,3.08
2018-09-30T10:01:48.864Z,3.20
2018-09-30T10:04:17.604Z,2.80
2018-09-30T10:06:46.853Z,3.77
2018-09-30T10:09:20.046Z,2.50
2018-09-30T10:11:49.201Z,3.08
2018-09-30T10:14:17.966Z,2.87
2018-09-30T10:16:46.633Z,2.50
2018-09-30T10:19:15.262Z,2.77
2018-09-30T10:21:43.823Z,2.35
2018-09-30T10:24:12.463Z,2.83
2018-09-30T10:26:41.135Z,3.25
2018-09-30T10:29:12.704Z,2.50
2018-09-30T10:31:41.897Z,2.60
2018-09-30T10:34:11.086Z,4.00
2018-09-30T10:36:45.451Z,3.90
2018-09-30T10:39:21.956Z,2.70
2018-09-30T10:41:55.327Z,3.30
2018-09-30T10:44:24.064Z,2.80
2018-09-30T10:47:18.861Z,3.02
2018-09-30T11:03:56.047Z,2.77
2018-09-30T11:06:25.693Z,2.37
2018-09-30T11:08:54.168Z,2.87
2018-09-30T11:11:22.639Z,3.80
2018-09-30T11:13:51.136Z,3.00
2018-09-30T11:16:19.595Z,2.65
2018-09-30T11:18:48.097Z,2.87
2018-09-30T11:21:16.537Z,2.67
2018-09-30T11:23:45.019Z,3.10
2018-09-30T11:26:13.484Z,3.27
2018-09-30T11:28:41.936Z,3.55
2018-09-30T11:31:10.392Z,3.52
2018-09-30T11:33:38.906Z,2.80
2018-09-30T11:36:07.413Z,2.90
2018-09-30T11:38:35.893Z,2.95
2018-09-30T11:41:04.392Z,2.60
2018-09-30T11:43:32.928Z,2.52
2018-09-30T11:46:01.427Z,2.70
2018-09-30T11:48:29.973Z,4.20
2018-09-30T11:50:58.465Z,2.58
2018-09-30T11:53:27.087Z,2.20
2018-09-30T11:55:55.671Z,2.40
2018-09-30T11:58:24.189Z,2.77
2018-09-30T12:00:52.653Z,2.60
2018-09-30T12:03:21.147Z,2.30
2018-09-30T12:05:49.659Z,2.72
2018-09-30T12:08:18.166Z,2.72
2018-09-30T12:10:46.638Z,2.40
2018-09-30T12:13:15.088Z,2.12
2018-09-30T12:15:43.587Z,1.92
2018-09-30T12:18:12.039Z,2.45
2018-09-30T12:20:40.612Z,1.80
2018-09-30T12:23:09.251Z,1.80
2018-09-30T12:25:37.840Z,2.35
2018-09-30T12:28:06.541Z,1.98
2018-09-30T12:30:35.275Z,3.60
2018-09-30T12:33:03.828Z,2.60
2018-09-30T12:35:32.385Z,2.10
2018-09-30T12:38:00.922Z,2.37
2018-09-30T12:40:29.648Z,2.63
2018-09-30T12:42:58.237Z,2.00
2018-09-30T12:45:26.775Z,1.90
2018-09-30T12:47:55.301Z,2.40
2018-09-30T12:50:23.843Z,2.20
2018-09-30T12:52:52.370Z,3.03
2018-09-30T12:55:20.919Z,2.40
2018-09-30T13:00:28.556Z,2.47
2018-09-30T13:02:57.103Z,2.60
2018-09-30T13:05:25.793Z,2.90
2018-09-30T13:07:54.433Z,4.10
2018-09-30T13:10:23.096Z,2.03
2018-09-30T13:12:55.774Z,2.37
2018-09-30T13:15:24.422Z,2.40
2018-09-30T13:17:52.997Z,2.00
2018-09-30T13:20:21.645Z,2.50
2018-09-30T13:22:51.610Z,3.57
2018-09-30T13:25:20.234Z,2.97
2018-09-30T13:27:48.815Z,2.63
2018-09-30T13:30:17.491Z,2.70
2018-09-30T13:32:46.229Z,3.03
2018-09-30T13:35:14.910Z,2.50
2018-09-30T13:37:43.676Z,2.70
2018-09-30T13:40:12.417Z,2.70
2018-09-30T13:42:40.999Z,2.20
2018-09-30T13:45:09.755Z,3.60
2018-09-30T13:47:38.485Z,2.20
2018-09-30T13:50:07.236Z,2.27
2018-09-30T13:52:35.813Z,3.23
2018-09-30T13:55:04.401Z,2.70
2018-09-30T13:57:33.072Z,2.70
2018-09-30T14:00:01.821Z,3.10
2018-09-30T14:02:30.391Z,2.57
2018-09-30T14:04:58.989Z,2.20
2018-09-30T14:07:27.550Z,2.10
2018-09-30T14:09:56.176Z,2.10
2018-09-30T14:12:27.065Z,2.20
2018-09-30T14:14:55.881Z,2.90
2018-09-30T14:17:24.847Z,6.47
2018-09-30T14:19:53.461Z,3.30
2018-09-30T14:22:22.282Z,2.30
2018-09-30T14:24:50.866Z,2.70
2018-09-30T14:27:19.668Z,3.03
2018-09-30T14:29:48.059Z,3.50
2018-09-30T14:32:16.603Z,3.40
2018-09-30T14:34:45.230Z,3.30
2018-09-30T14:37:13.852Z,2.77
2018-09-30T14:39:42.576Z,3.30
2018-09-30T14:42:11.184Z,3.20
2018-09-30T14:44:39.935Z,2.80
2018-09-30T14:47:08.602Z,3.33
2018-09-30T14:49:37.326Z,3.33
2018-09-30T14:52:06.013Z,3.50
2018-09-30T14:54:34.666Z,3.20
2018-09-30T14:57:03.363Z,3.00
2018-09-30T14:59:32.057Z,4.10
2018-09-30T15:02:00.800Z,4.20
2018-09-30T15:04:29.445Z,3.47
2018-09-30T15:06:58.052Z,3.57
2018-09-30T15:09:26.726Z,3.27
2018-09-30T15:11:55.389Z,3.10
2018-09-30T15:14:24.052Z,3.83
2018-09-30T15:16:52.731Z,3.10
2018-09-30T15:19:21.364Z,2.80
2018-09-30T15:21:50.007Z,2.27
2018-09-30T15:24:18.643Z,2.90
2018-09-30T15:26:47.398Z,2.80
2018-09-30T15:29:15.964Z,3.20
2018-09-30T15:31:44.686Z,4.13
2018-09-30T15:34:13.292Z,5.03
2018-09-30T15:36:41.908Z,3.00
2018-09-30T15:39:12.313Z,3.03
2018-09-30T15:41:41.525Z,2.97
2018-09-30T15:44:11.156Z,3.43
2018-09-30T15:46:39.725Z,4.20
2018-09-30T15:49:08.533Z,5.30
2018-09-30T15:51:37.281Z,3.90
2018-09-30T15:54:05.995Z,3.73
2018-09-30T15:56:34.634Z,3.90
2018-09-30T15:59:03.214Z,3.20
2018-09-30T16:01:31.783Z,3.20
2018-09-30T16:04:00.573Z,3.80
2018-09-30T16:06:29.246Z,4.63
2018-09-30T16:08:58.016Z,4.13
2018-09-30T16:11:26.666Z,4.30
2018-09-30T16:13:55.463Z,4.70
2018-09-30T16:16:24.076Z,4.03
2018-09-30T16:18:52.724Z,4.20
2018-09-30T16:21:21.483Z,3.90
2018-09-30T16:23:50.063Z,11.97
2018-09-30T16:26:18.846Z,4.10
2018-09-30T16:28:47.466Z,3.73
2018-09-30T16:31:16.188Z,4.07
2018-09-30T16:33:44.777Z,4.10
2018-09-30T16:36:13.510Z,3.73
2018-09-30T16:38:42.282Z,3.70
2018-09-30T16:41:11.012Z,4.17
2018-09-30T16:43:39.762Z,4.20
2018-09-30T16:46:08.427Z,5.27
2018-09-30T16:48:37.117Z,4.40
2018-09-30T16:51:05.810Z,3.73
2018-09-30T16:53:34.483Z,3.23
2018-09-30T16:56:03.064Z,3.07
2018-09-30T16:58:31.907Z,2.90
2018-09-30T17:01:00.605Z,2.90
2018-09-30T17:03:29.393Z,2.60
2018-09-30T17:05:58.028Z,3.00
2018-09-30T17:08:27.043Z,3.10
2018-09-30T17:10:55.638Z,3.23
2018-09-30T17:13:24.406Z,3.20
2018-09-30T17:15:53.433Z,3.00
2018-09-30T17:18:22.247Z,2.47
2018-09-30T17:20:51.104Z,2.07
2018-09-30T17:23:19.821Z,2.23
2018-09-30T17:25:48.585Z,2.73
2018-09-30T17:28:17.451Z,2.50
2018-09-30T17:30:46.157Z,2.50
2018-09-30T17:33:17.109Z,3.00
2018-09-30T17:35:46.077Z,2.67
2018-09-30T17:38:14.819Z,2.93
2018-09-30T17:40:43.420Z,3.17
2018-09-30T17:43:12.163Z,3.53
2018-09-30T17:45:40.884Z,3.43
2018-09-30T17:48:09.758Z,3.87
2018-09-30T17:50:38.496Z,3.30
2018-09-30T17:53:07.356Z,3.20
2018-09-30T17:55:36.444Z,3.10
2018-09-30T17:58:05.067Z,3.43
2018-09-30T18:00:33.852Z,3.30
2018-09-30T18:03:02.788Z,3.57
2018-09-30T18:05:31.464Z,3.83
2018-09-30T18:08:00.501Z,3.60
2018-09-30T18:10:29.546Z,3.13
2018-09-30T18:12:58.745Z,3.57
2018-09-30T18:15:28.041Z,3.70
2018-09-30T18:17:57.041Z,3.20
2018-09-30T18:20:26.854Z,2.87
2018-09-30T18:22:58.097Z,3.87
2018-09-30T18:25:26.950Z,3.67
2018-09-30T18:27:55.740Z,3.47
2018-09-30T18:30:24.501Z,3.63
2018-09-30T18:32:53.314Z,3.10
2018-09-30T18:35:22.180Z,3.40
2018-09-30T18:37:50.903Z,3.50
2018-09-30T18:40:19.650Z,3.60
2018-09-30T18:42:48.476Z,3.33
2018-09-30T18:45:17.346Z,3.73
2018-09-30T18:47:46.267Z,4.23
2018-09-30T18:50:14.961Z,4.27
2018-09-30T18:52:43.741Z,3.73
2018-09-30T18:55:12.396Z,3.60
2018-09-30T18:57:41.010Z,3.80
2018-09-30T19:00:09.680Z,4.43
2018-09-30T19:02:38.378Z,4.13
2018-09-30T19:05:06.974Z,4.10
2018-09-30T19:07:35.566Z,4.10
2018-09-30T19:10:04.135Z,4.17
2018-09-30T19:12:32.740Z,4.03
2018-09-30T19:15:01.344Z,5.10
2018-09-30T19:17:29.921Z,4.93
2018-09-30T19:19:58.576Z,5.13
2018-09-30T19:22:27.154Z,4.23
2018-09-30T19:24:55.708Z,4.90
2018-09-30T19:27:24.751Z,5.13
2018-09-30T19:29:53.417Z,4.30
2018-09-30T19:32:21.990Z,4.90
2018-09-30T19:34:50.566Z,5.23
2018-09-30T19:37:19.180Z,6.00
2018-09-30T19:39:47.797Z,5.30
2018-09-30T19:42:16.383Z,5.30
2018-09-30T19:44:44.958Z,4.67
2018-09-30T19:47:13.544Z,5.83
2018-09-30T19:49:42.180Z,5.63
2018-09-30T19:52:10.723Z,5.70
2018-09-30T19:54:39.293Z,6.00
2018-09-30T19:57:07.845Z,6.10
2018-09-30T19:59:36.489Z,6.07
2018-09-30T20:02:05.070Z,5.33
2018-09-30T20:04:33.609Z,6.10
2018-09-30T20:07:02.328Z,6.40
2018-09-30T20:09:31.012Z,5.80
2018-09-30T20:11:59.449Z,7.10
2018-09-30T20:14:28.144Z,6.80
2018-09-30T20:16:56.650Z,6.53
2018-09-30T20:19:25.621Z,7.07
2018-09-30T20:21:54.146Z,6.17
2018-09-30T20:24:22.690Z,6.57
2018-09-30T20:26:51.249Z,6.30
2018-09-30T20:29:19.810Z,6.50
2018-09-30T20:31:48.464Z,6.63
2018-09-30T20:34:17.071Z,7.63
2018-09-30T20:36:45.719Z,7.20
2018-09-30T20:39:14.399Z,7.00
2018-09-30T20:41:43.073Z,6.30
2018-09-30T20:44:11.747Z,6.67
2018-09-30T20:46:40.466Z,5.80
2018-09-30T20:49:09.068Z,6.07
2018-09-30T20:51:37.773Z,7.27
2018-09-30T20:54:06.427Z,6.63
2018-09-30T20:56:35.028Z,6.97
2018-09-30T20:59:03.633Z,6.60
2018-09-30T21:01:32.521Z,7.10
2018-09-30T21:04:01.185Z,7.07
2018-09-30T21:06:35.984Z,7.00
2018-09-30T21:09:07.133Z,6.77
2018-09-30T21:11:35.834Z,7.17
2018-09-30T21:14:04.694Z,6.90
2018-09-30T21:16:33.364Z,6.77
2018-09-30T21:19:01.887Z,6.53
2018-09-30T21:21:30.593Z,6.90
2018-09-30T21:23:59.212Z,6.43
2018-09-30T21:26:27.753Z,6.43
2018-09-30T21:28:56.316Z,6.60
2018-09-30T21:31:24.908Z,6.07
2018-09-30T21:33:53.475Z,6.43
2018-09-30T21:36:22.061Z,7.13
2018-09-30T21:38:50.633Z,6.40
2018-09-30T21:41:19.174Z,6.27
2018-09-30T21:43:47.630Z,6.50
2018-09-30T21:46:16.123Z,6.03
2018-09-30T21:48:44.825Z,6.77
2018-09-30T21:51:13.374Z,6.07
2018-09-30T21:53:41.925Z,6.67
2018-09-30T21:56:12.272Z,6.33
2018-09-30T21:58:41.337Z,6.57
2018-09-30T22:01:10.754Z,6.83
2018-09-30T22:03:39.261Z,5.73
2018-09-30T22:06:08.105Z,6.90
2018-09-30T22:08:36.679Z,6.63
2018-09-30T22:11:07.576Z,6.47
2018-09-30T22:13:37.371Z,6.80
2018-09-30T22:16:08.836Z,7.03
2018-09-30T22:18:39.498Z,7.07
2018-09-30T22:21:09.202Z,7.23
2018-09-30T22:23:39.550Z,7.30
2018-09-30T22:26:08.942Z,6.73
2018-09-30T22:28:39.553Z,6.70
2018-09-30T22:31:11.154Z,6.80
2018-09-30T22:33:39.641Z,7.03
2018-09-30T22:36:08.134Z,7.10
2018-09-30T22:38:36.627Z,6.97
2018-09-30T22:41:05.158Z,6.70
2018-09-30T22:43:33.717Z,6.67
2018-09-30T22:46:02.253Z,6.93
2018-09-30T22:48:33.514Z,7.73
2018-09-30T22:51:02.060Z,6.93
2018-09-30T22:53:30.517Z,7.67
2018-09-30T22:55:59.121Z,7.97
2018-09-30T22:58:27.698Z,7.33
2018-09-30T23:00:58.204Z,7.27
2018-09-30T23:03:26.849Z,7.10
2018-09-30T23:05:55.377Z,7.40
2018-09-30T23:08:23.878Z,6.70
2018-09-30T23:10:52.455Z,7.47
2018-09-30T23:13:21.294Z,7.37
2018-09-30T23:15:49.828Z,7.53
2018-09-30T23:18:19.482Z,7.80
2018-09-30T23:20:49.066Z,6.73
2018-09-30T23:23:18.811Z,6.87
2018-09-30T23:25:49.499Z,7.23
2018-09-30T23:28:20.201Z,7.03
2018-09-30T23:30:51.220Z,7.03
2018-09-30T23:33:19.776Z,6.77
2018-09-30T23:35:48.255Z,7.67
2018-09-30T23:38:16.692Z,6.87
2018-09-30T23:40:45.151Z,7.00
2018-09-30T23:43:13.625Z,6.57
2018-09-30T23:45:42.090Z,7.40
2018-09-30T23:48:10.588Z,7.03
2018-09-30T23:50:39.113Z,6.67
2018-09-30T23:53:07.544Z,6.50
2018-09-30T23:55:35.943Z,6.90
2018-09-30T23:58:13.892Z,6.63
